Time;durP1;ratioP1;P1;durP2;ratioP2;P2;SDS_P1;SDS_P2;PMS_P1;PMS_P2;Temp;Humidity;BMP_temperature;BMP_pressure;BME280_temperature;BME280_humidity;BME280_pressure;Samples;Min_cycle;Max_cycle;Signal;HPM_P1;HPM_P2
2024/04/14 00:01:51;;;;;;;4.57;2.85;;;17.80;98.70;;;;;;5347659;26;19997;-77
2024/04/14 00:04:17;;;;;;;6.18;2.25;;;17.90;98.80;;;;;;5316490;26;20005;-76
2024/04/14 00:06:42;;;;;;;5.15;2.60;;;17.80;98.90;;;;;;5317168;26;20005;-77
2024/04/14 00:09:08;;;;;;;5.10;3.20;;;17.80;99.10;;;;;;5317442;26;20000;-77
2024/04/14 00:11:33;;;;;;;3.38;2.50;;;17.70;99.40;;;;;;5316289;26;20274;-77
2024/04/14 00:13:59;;;;;;;6.32;2.80;;;17.60;99.70;;;;;;5317263;26;19997;-77
2024/04/14 00:16:25;;;;;;;3.33;2.53;;;17.50;99.90;;;;;;5316152;26;20500;-77
2024/04/14 00:18:50;;;;;;;4.13;2.80;;;17.40;99.90;;;;;;5317379;26;20456;-77
2024/04/14 00:21:16;;;;;;;7.10;2.78;;;17.30;99.90;;;;;;5347276;26;20067;-77
2024/04/14 00:23:41;;;;;;;5.47;3.03;;;17.30;99.90;;;;;;5347472;26;20001;-77
2024/04/14 00:26:10;;;;;;;4.15;2.72;;;17.20;99.90;;;;;;5316880;26;20412;-77
2024/04/14 00:28:36;;;;;;;4.38;2.97;;;17.20;99.90;;;;;;5346504;26;19989;-77
2024/04/14 00:31:01;;;;;;;5.30;2.65;;;17.10;99.90;;;;;;5316720;26;20348;-77
2024/04/14 00:33:30;;;;;;;6.57;2.88;;;17.10;99.90;;;;;;5316098;26;20410;-77
2024/04/14 00:35:55;;;;;;;6.80;3.35;;;17.10;99.90;;;;;;5347145;26;19997;-77
2024/04/14 00:38:21;;;;;;;4.28;2.95;;;17.00;99.90;;;;;;5316187;26;20075;-77
2024/04/14 00:40:47;;;;;;;6.30;2.90;;;16.90;99.90;;;;;;5316746;26;20440;-77
2024/04/14 00:43:15;;;;;;;6.85;2.92;;;16.90;99.90;;;;;;5317096;26;20453;-77
2024/04/14 00:45:42;;;;;;;6.65;3.15;;;16.80;99.90;;;;;;5316225;26;20013;-77
2024/04/14 00:48:08;;;;;;;4.22;2.72;;;16.80;99.90;;;;;;5316895;26;19989;-77
2024/04/14 00:50:34;;;;;;;5.35;2.90;;;16.80;99.90;;;;;;5315768;26;20005;-77
2024/04/14 00:53:00;;;;;;;5.47;2.67;;;16.70;99.90;;;;;;5317084;26;19999;-80
2024/04/14 00:55:26;;;;;;;5.10;2.90;;;16.70;99.90;;;;;;5316132;26;20001;-77
2024/04/14 00:57:52;;;;;;;8.10;3.10;;;16.60;99.90;;;;;;5347142;26;20037;-77
2024/04/14 01:00:19;;;;;;;4.70;2.78;;;16.60;99.90;;;;;;5316168;26;20320;-77
2024/04/14 01:02:47;;;;;;;6.75;3.03;;;16.50;99.90;;;;;;5346655;26;20033;-77
2024/04/14 01:05:13;;;;;;;4.45;2.95;;;16.50;99.90;;;;;;5315842;26;20005;-77
2024/04/14 01:07:39;;;;;;;3.45;2.55;;;16.50;99.90;;;;;;5315866;26;20249;-77
2024/04/14 01:10:05;;;;;;;7.00;2.88;;;16.50;99.90;;;;;;5317055;26;20326;-77
2024/04/14 01:12:31;;;;;;;4.32;2.88;;;16.50;99.90;;;;;;5346281;26;20091;-77
2024/04/14 01:14:57;;;;;;;4.95;3.10;;;16.50;99.90;;;;;;5316960;26;20004;-77
2024/04/14 01:17:23;;;;;;;7.15;2.85;;;16.50;99.90;;;;;;5345763;26;20001;-77
2024/04/14 01:19:49;;;;;;;8.48;2.70;;;16.50;99.90;;;;;;5346611;26;20012;-77
2024/04/14 01:22:14;;;;;;;4.47;2.83;;;16.50;99.90;;;;;;5316462;26;19997;-77
2024/04/14 01:24:40;;;;;;;5.72;2.80;;;16.50;99.90;;;;;;5315691;26;20060;-78
2024/04/14 01:27:05;;;;;;;4.20;2.60;;;16.50;99.90;;;;;;5315446;26;20001;-77
2024/04/14 01:29:32;;;;;;;4.03;2.38;;;16.40;99.90;;;;;;5345547;26;20321;-77
2024/04/14 01:31:57;;;;;;;5.97;2.88;;;16.50;99.90;;;;;;5316553;26;20430;-77
2024/04/14 01:34:23;;;;;;;6.10;2.33;;;16.50;99.90;;;;;;5315313;26;19997;-77
2024/04/14 01:36:48;;;;;;;3.42;2.30;;;16.50;99.90;;;;;;5315464;26;20004;-77
2024/04/14 01:39:14;;;;;;;3.67;2.10;;;16.50;99.90;;;;;;5345978;26;20437;-77
2024/04/14 01:41:39;;;;;;;3.38;2.50;;;16.40;99.90;;;;;;5314637;26;20012;-77
2024/04/14 01:44:05;;;;;;;4.65;2.38;;;16.40;99.90;;;;;;5346541;26;20429;-77
2024/04/14 01:46:30;;;;;;;5.18;2.35;;;16.40;99.90;;;;;;5314773;26;20015;-77
2024/04/14 01:48:56;;;;;;;4.10;2.30;;;16.40;99.90;;;;;;5345797;26;20005;-77
2024/04/14 01:51:22;;;;;;;4.18;2.38;;;16.30;99.90;;;;;;5315480;26;20001;-76
2024/04/14 01:53:47;;;;;;;3.00;2.08;;;16.30;99.90;;;;;;5346236;26;20012;-77
2024/04/14 01:56:13;;;;;;;3.15;2.45;;;16.30;99.90;;;;;;5346398;26;20333;-77
2024/04/14 01:58:39;;;;;;;6.88;2.33;;;16.30;99.90;;;;;;5314985;26;20000;-77
2024/04/14 02:01:04;;;;;;;4.40;2.50;;;16.30;99.90;;;;;;5316131;26;20008;-77
2024/04/14 02:03:31;;;;;;;4.07;2.30;;;16.30;99.90;;;;;;5314568;26;20075;-77
2024/04/14 02:05:59;;;;;;;3.80;1.95;;;16.30;99.90;;;;;;5346097;26;20008;-77
2024/04/14 02:08:25;;;;;;;3.70;2.17;;;16.30;99.90;;;;;;5314891;26;20001;-76
2024/04/14 02:10:51;;;;;;;3.47;2.38;;;16.30;99.90;;;;;;5316247;26;20011;-77
2024/04/14 02:13:17;;;;;;;3.03;2.35;;;16.30;99.90;;;;;;5315959;26;19997;-77
2024/04/14 02:15:42;;;;;;;4.65;2.17;;;16.30;99.90;;;;;;5315358;26;20609;-75
2024/04/14 02:18:08;;;;;;;3.45;2.20;;;16.30;99.90;;;;;;5346222;26;20070;-77
2024/04/14 02:20:33;;;;;;;3.05;1.70;;;16.40;99.90;;;;;;5345324;26;20001;-78
2024/04/14 02:22:59;;;;;;;3.28;1.85;;;16.50;99.90;;;;;;5346269;26;19989;-78
2024/04/14 02:25:25;;;;;;;3.97;2.05;;;16.50;99.90;;;;;;5345344;26;20001;-76
2024/04/14 02:27:50;;;;;;;4.15;1.60;;;16.50;99.90;;;;;;5315718;26;20445;-77
2024/04/14 02:30:16;;;;;;;5.10;2.00;;;16.60;99.90;;;;;;5346347;26;19993;-77
2024/04/14 02:32:41;;;;;;;2.33;2.00;;;16.60;99.90;;;;;;5314718;26;20015;-78
2024/04/14 02:35:07;;;;;;;1.90;1.50;;;16.60;99.90;;;;;;5345984;26;20005;-77
2024/04/14 02:37:33;;;;;;;3.90;2.03;;;16.60;99.90;;;;;;5314234;26;20001;-77
2024/04/14 02:39:58;;;;;;;2.15;1.70;;;16.70;99.80;;;;;;5314630;26;20329;-77
2024/04/14 02:42:24;;;;;;;3.13;1.73;;;16.70;99.80;;;;;;5314809;26;20000;-77
2024/04/14 02:44:50;;;;;;;2.70;1.48;;;16.70;99.70;;;;;;5315376;26;20011;-78
2024/04/14 02:47:16;;;;;;;4.50;1.92;;;16.80;99.60;;;;;;5315568;26;19992;-78
2024/04/14 02:49:41;;;;;;;2.92;1.50;;;16.80;99.50;;;;;;5314723;26;20008;-77
2024/04/14 02:52:07;;;;;;;3.47;1.75;;;16.90;99.40;;;;;;5315543;26;20494;-77
2024/04/14 02:54:32;;;;;;;2.35;1.60;;;16.90;99.40;;;;;;5345024;26;20019;-77
2024/04/14 02:56:58;;;;;;;3.15;1.73;;;16.90;99.40;;;;;;5345999;26;20318;-78
2024/04/14 02:59:24;;;;;;;2.60;1.80;;;16.90;99.40;;;;;;5315329;26;20004;-77
2024/04/14 03:01:49;;;;;;;2.15;1.63;;;16.90;99.50;;;;;;5314787;26;20397;-77
2024/04/14 03:04:15;;;;;;;5.15;2.17;;;16.80;99.60;;;;;;5315173;26;20454;-76
2024/04/14 03:06:40;;;;;;;4.70;2.17;;;16.80;99.70;;;;;;5313675;26;20030;-77
2024/04/14 03:09:06;;;;;;;2.97;1.70;;;16.70;99.70;;;;;;5314725;26;20003;-77
2024/04/14 03:11:32;;;;;;;2.95;1.67;;;16.70;99.90;;;;;;5343935;26;20403;-77
2024/04/14 03:13:57;;;;;;;3.58;1.90;;;16.60;99.90;;;;;;5345099;26;20004;-77
2024/04/14 03:16:23;;;;;;;5.32;1.92;;;16.50;99.90;;;;;;5344928;26;20342;-77
2024/04/14 03:18:48;;;;;;;3.22;1.77;;;16.50;99.90;;;;;;5313577;26;20009;-77
2024/04/14 03:21:14;;;;;;;4.35;1.90;;;16.40;99.90;;;;;;5314401;26;19997;-77
2024/04/14 03:23:40;;;;;;;3.15;1.83;;;16.40;99.90;;;;;;5343770;26;20067;-77
2024/04/14 03:26:06;;;;;;;3.67;1.95;;;16.30;99.90;;;;;;5314400;26;20075;-78
2024/04/14 03:28:32;;;;;;;3.35;1.85;;;16.30;99.90;;;;;;5313423;26;20009;-77
2024/04/14 03:31:01;;;;;;;2.72;2.10;;;16.30;99.90;;;;;;5314228;26;20453;-77
2024/04/14 03:33:29;;;;;;;4.22;1.80;;;16.20;99.90;;;;;;5343966;26;20001;-76
2024/04/14 03:36:02;;;;;;;2.10;1.60;;;16.20;99.90;;;;;;5344451;26;19997;-77
2024/04/14 03:38:28;;;;;;;3.85;1.60;;;16.20;99.90;;;;;;5313712;26;20032;-77
2024/04/14 03:40:53;;;;;;;3.50;2.10;;;16.20;99.90;;;;;;5313994;26;20001;-77
2024/04/14 03:43:19;;;;;;;5.53;1.70;;;16.20;99.90;;;;;;5344620;26;20441;-77
2024/04/14 03:45:45;;;;;;;5.57;2.58;;;16.20;99.90;;;;;;5312803;26;20001;-77
2024/04/14 03:48:11;;;;;;;3.92;1.90;;;16.10;99.90;;;;;;5313831;26;20043;-76
2024/04/14 03:50:37;;;;;;;3.55;1.65;;;16.10;99.90;;;;;;5315453;26;20004;-75
2024/04/14 03:53:02;;;;;;;2.10;1.65;;;16.10;99.90;;;;;;5317552;26;20013;-76
2024/04/14 03:55:28;;;;;;;3.95;1.88;;;16.10;99.90;;;;;;5347726;26;19997;-76
2024/04/14 03:57:53;;;;;;;3.90;1.98;;;16.10;99.90;;;;;;5347136;26;19996;-75
2024/04/14 04:00:19;;;;;;;3.30;1.90;;;16.10;99.90;;;;;;5317046;26;20396;-76
2024/04/14 04:02:44;;;;;;;2.67;1.67;;;16.00;99.90;;;;;;5346906;26;20009;-76
2024/04/14 04:05:10;;;;;;;6.50;2.17;;;16.00;99.90;;;;;;5347433;26;19996;-76
2024/04/14 04:07:35;;;;;;;3.20;1.75;;;16.00;99.90;;;;;;5316578;26;20001;-76
2024/04/14 04:10:01;;;;;;;2.42;1.92;;;16.00;99.90;;;;;;5317450;26;20004;-76
2024/04/14 04:12:27;;;;;;;2.78;1.85;;;16.00;99.90;;;;;;5317318;26;20008;-76
2024/04/14 04:14:52;;;;;;;3.95;2.03;;;16.00;99.90;;;;;;5347121;26;20429;-76
2024/04/14 04:17:18;;;;;;;2.72;1.90;;;16.00;99.90;;;;;;5347816;26;20066;-76
2024/04/14 04:19:44;;;;;;;5.15;1.95;;;16.00;99.90;;;;;;5316124;26;20348;-76
2024/04/14 04:22:09;;;;;;;6.57;2.00;;;15.90;99.90;;;;;;5310837;27;20009;-76
2024/04/14 04:24:35;;;;;;;4.35;1.73;;;15.90;99.90;;;;;;5312018;27;20426;-76
2024/04/14 04:27:01;;;;;;;3.75;1.88;;;15.90;99.90;;;;;;5282789;27;19997;-76
2024/04/14 04:29:28;;;;;;;5.10;2.05;;;15.90;99.90;;;;;;5312682;27;20002;-76
2024/04/14 04:31:56;;;;;;;2.60;1.95;;;15.80;99.90;;;;;;5312041;27;19997;-76
2024/04/14 04:34:22;;;;;;;4.88;1.98;;;15.80;99.90;;;;;;5312681;27;19998;-76
2024/04/14 04:36:50;;;;;;;3.28;1.80;;;15.80;99.90;;;;;;5281175;27;20036;-76
2024/04/14 04:39:19;;;;;;;4.05;2.10;;;15.70;99.90;;;;;;5312653;27;20303;-76
2024/04/14 04:41:45;;;;;;;3.75;2.17;;;15.70;99.90;;;;;;5309891;27;20005;-76
2024/04/14 04:44:11;;;;;;;5.43;2.20;;;15.70;99.90;;;;;;5312817;27;20002;-76
2024/04/14 04:46:37;;;;;;;3.22;2.00;;;15.70;99.90;;;;;;5281844;27;20004;-76
2024/04/14 04:49:03;;;;;;;4.03;2.05;;;15.70;99.90;;;;;;5282372;27;20008;-76
2024/04/14 04:51:29;;;;;;;3.47;2.03;;;15.70;99.90;;;;;;5282302;27;20029;-77
2024/04/14 04:53:54;;;;;;;2.90;1.95;;;15.70;99.90;;;;;;5281513;27;19997;-77
2024/04/14 04:56:20;;;;;;;2.67;1.85;;;15.70;99.90;;;;;;5282213;27;20439;-76
2024/04/14 04:58:45;;;;;;;3.20;2.00;;;15.60;99.90;;;;;;5281395;27;20040;-76
2024/04/14 05:01:11;;;;;;;4.53;2.28;;;15.60;99.90;;;;;;5311218;27;20072;-76
2024/04/14 05:03:37;;;;;;;3.95;2.22;;;15.60;99.90;;;;;;5311495;27;20013;-77
2024/04/14 05:06:04;;;;;;;6.55;2.15;;;15.60;99.90;;;;;;5312398;27;19997;-76
2024/04/14 05:08:33;;;;;;;2.53;2.05;;;15.60;99.90;;;;;;5282103;27;20001;-76
2024/04/14 05:10:59;;;;;;;3.60;2.38;;;15.70;99.90;;;;;;5310122;27;20014;-76
2024/04/14 05:13:26;;;;;;;4.57;2.55;;;15.60;99.90;;;;;;5312154;27;20080;-76
2024/04/14 05:15:52;;;;;;;3.50;2.45;;;15.60;99.90;;;;;;5311793;27;19998;-77
2024/04/14 05:18:18;;;;;;;4.43;2.22;;;15.60;99.90;;;;;;5312851;27;20072;-77
2024/04/14 05:20:44;;;;;;;7.95;2.20;;;15.60;99.90;;;;;;5281563;27;19998;-77
2024/04/14 05:23:10;;;;;;;2.28;1.98;;;15.60;99.90;;;;;;5311166;27;20036;-77
2024/04/14 05:25:36;;;;;;;4.70;2.22;;;15.70;99.90;;;;;;5312050;27;19993;-76
2024/04/14 05:28:02;;;;;;;5.80;2.53;;;15.70;99.90;;;;;;5312531;27;20010;-76
2024/04/14 05:30:28;;;;;;;3.30;2.20;;;15.70;99.90;;;;;;5282655;27;19997;-77
2024/04/14 05:32:56;;;;;;;5.13;2.10;;;15.70;99.90;;;;;;5309967;27;20033;-76
2024/04/14 05:35:22;;;;;;;4.57;2.40;;;15.70;99.90;;;;;;5282303;27;20008;-77
2024/04/14 05:37:48;;;;;;;3.75;2.67;;;15.70;99.90;;;;;;5311370;27;20393;-77
2024/04/14 05:40:13;;;;;;;5.32;2.53;;;15.70;99.90;;;;;;5312431;27;20013;-77
2024/04/14 05:42:39;;;;;;;4.22;2.10;;;15.70;99.90;;;;;;5311570;27;20338;-75
2024/04/14 05:45:07;;;;;;;4.22;2.35;;;15.70;99.90;;;;;;5312208;27;20001;-77
2024/04/14 05:47:33;;;;;;;3.38;2.03;;;15.70;99.90;;;;;;5281964;27;20004;-76
2024/04/14 05:49:59;;;;;;;6.57;2.30;;;15.70;99.90;;;;;;5317729;26;20004;-76
2024/04/14 05:52:24;;;;;;;5.85;2.28;;;15.70;99.90;;;;;;5317232;26;20004;-76
2024/04/14 05:54:50;;;;;;;3.88;2.42;;;15.70;99.90;;;;;;5345547;26;19997;-76
2024/04/14 05:57:16;;;;;;;3.70;2.15;;;15.70;99.90;;;;;;5315488;26;20029;-76
2024/04/14 05:59:44;;;;;;;4.43;2.45;;;15.80;99.90;;;;;;5315210;26;20071;-76
2024/04/14 06:02:10;;;;;;;3.80;2.20;;;15.80;99.90;;;;;;5346132;26;20001;-76
2024/04/14 06:04:36;;;;;;;7.00;2.78;;;15.80;99.90;;;;;;5315470;26;20329;-76
2024/04/14 06:07:01;;;;;;;5.47;2.20;;;15.80;99.90;;;;;;5310067;27;20009;-77
2024/04/14 06:09:28;;;;;;;4.45;2.13;;;15.80;99.90;;;;;;5310380;27;20006;-77
2024/04/14 06:11:53;;;;;;;3.75;2.17;;;15.80;99.90;;;;;;5311244;26;20001;-77
2024/04/14 06:14:19;;;;;;;5.35;2.40;;;15.90;99.90;;;;;;5310187;27;20029;-77
2024/04/14 06:16:45;;;;;;;5.22;2.13;;;15.90;99.90;;;;;;5309636;27;20009;-76
2024/04/14 06:19:11;;;;;;;5.35;2.22;;;15.90;99.90;;;;;;5312659;26;20001;-77
2024/04/14 06:21:38;;;;;;;3.15;2.00;;;16.00;99.90;;;;;;5315972;26;20027;-77
2024/04/14 06:24:04;;;;;;;4.60;2.28;;;16.00;99.90;;;;;;5344176;26;20012;-76
2024/04/14 06:26:29;;;;;;;4.57;2.17;;;16.10;99.90;;;;;;5343958;26;20009;-76
2024/04/14 06:28:55;;;;;;;3.90;2.33;;;16.10;99.90;;;;;;5306454;26;20017;-75
2024/04/14 06:31:20;;;;;;;6.00;2.50;;;16.20;99.90;;;;;;5275426;27;20010;-76
2024/04/14 06:33:46;;;;;;;3.88;1.77;;;16.20;99.90;;;;;;5274554;27;20539;-76
2024/04/14 06:36:11;;;;;;;4.35;2.10;;;16.20;99.90;;;;;;5277163;27;20010;-76
2024/04/14 06:38:39;;;;;;;3.25;2.03;;;16.20;99.90;;;;;;5275187;27;20593;-75
2024/04/14 06:41:04;;;;;;;3.75;2.10;;;16.20;99.90;;;;;;5285288;27;20017;-76
2024/04/14 06:43:30;;;;;;;5.03;2.40;;;16.20;99.90;;;;;;5309953;27;20076;-76
2024/04/14 06:45:55;;;;;;;3.58;2.05;;;16.20;99.90;;;;;;5308293;27;20005;-76
2024/04/14 06:48:21;;;;;;;2.65;1.85;;;16.30;99.90;;;;;;5309093;27;20071;-76
2024/04/14 06:50:47;;;;;;;3.50;2.03;;;16.30;99.90;;;;;;5309928;27;20002;-76
2024/04/14 06:53:13;;;;;;;11.18;3.28;;;16.40;99.90;;;;;;5309217;27;20001;-76
2024/04/14 06:55:42;;;;;;;3.90;2.03;;;16.40;99.90;;;;;;5310595;26;20005;-76
2024/04/14 06:58:07;;;;;;;3.90;2.13;;;16.40;99.90;;;;;;5309144;27;20002;-78
2024/04/14 07:00:33;;;;;;;4.50;2.10;;;16.50;99.90;;;;;;5311365;26;20008;-76
2024/04/14 07:02:59;;;;;;;2.65;2.10;;;16.60;99.90;;;;;;5310437;26;20002;-76
2024/04/14 07:05:25;;;;;;;4.13;2.35;;;16.70;99.90;;;;;;5313021;26;20002;-76
2024/04/14 07:07:50;;;;;;;4.30;1.90;;;16.70;99.90;;;;;;5314127;26;20498;-76
2024/04/14 07:10:16;;;;;;;9.73;2.45;;;16.80;99.90;;;;;;5345898;26;19989;-77
2024/04/14 07:12:41;;;;;;;3.45;2.10;;;16.80;99.90;;;;;;5344419;26;19997;-76
2024/04/14 07:15:07;;;;;;;5.57;1.90;;;16.90;99.90;;;;;;5345107;26;19997;-77
2024/04/14 07:17:33;;;;;;;4.40;1.95;;;17.00;99.90;;;;;;5315138;26;20066;-77
2024/04/14 07:19:58;;;;;;;5.43;2.35;;;17.00;99.90;;;;;;5314121;26;20219;-77
2024/04/14 07:22:24;;;;;;;4.38;2.15;;;17.00;99.90;;;;;;5315050;26;20066;-77
2024/04/14 07:24:49;;;;;;;3.10;1.77;;;17.10;99.90;;;;;;5345288;26;19997;-77
2024/04/14 07:27:15;;;;;;;4.57;1.92;;;17.20;99.90;;;;;;5318074;26;20001;-77
2024/04/14 07:29:41;;;;;;;2.97;2.00;;;17.30;99.90;;;;;;5317060;26;20041;-76
2024/04/14 07:32:06;;;;;;;3.33;1.92;;;17.30;99.90;;;;;;5347577;26;20000;-77
2024/04/14 07:34:32;;;;;;;2.72;1.73;;;17.30;99.90;;;;;;5318046;26;20005;-77
2024/04/14 07:36:59;;;;;;;3.83;2.17;;;17.40;99.90;;;;;;5316725;26;20359;-77
2024/04/14 07:39:25;;;;;;;3.72;2.60;;;17.50;99.90;;;;;;5317689;26;19993;-77
2024/04/14 07:41:50;;;;;;;2.53;2.20;;;17.50;99.90;;;;;;5347283;26;20012;-77
2024/04/14 07:44:16;;;;;;;4.13;2.17;;;17.60;99.90;;;;;;5317672;26;19997;-77
2024/04/14 07:46:42;;;;;;;2.28;1.73;;;17.70;99.90;;;;;;5317102;26;20000;-76
2024/04/14 07:49:08;;;;;;;5.97;1.90;;;17.80;99.90;;;;;;5317591;26;20092;-77
2024/04/14 07:51:33;;;;;;;3.65;1.60;;;17.90;99.90;;;;;;5318269;26;19997;-78
2024/04/14 07:53:59;;;;;;;6.38;2.33;;;17.90;99.90;;;;;;5315704;26;20464;-77
2024/04/14 07:56:25;;;;;;;3.83;2.30;;;18.00;99.90;;;;;;5348949;26;19997;-77
2024/04/14 07:58:50;;;;;;;3.97;1.80;;;18.10;99.90;;;;;;5344153;26;20322;-77
2024/04/14 08:01:16;;;;;;;5.63;2.10;;;18.30;99.90;;;;;;5348092;26;20008;-77
2024/04/14 08:03:42;;;;;;;3.97;2.10;;;18.40;99.90;;;;;;5335925;26;20044;-77
2024/04/14 08:06:07;;;;;;;7.15;2.17;;;18.60;99.90;;;;;;5326721;26;20021;-77
2024/04/14 08:08:33;;;;;;;2.35;1.50;;;18.70;99.90;;;;;;5345889;26;20389;-77
2024/04/14 08:10:58;;;;;;;2.22;1.73;;;18.80;99.90;;;;;;5324999;26;20004;-77
2024/04/14 08:13:24;;;;;;;4.25;1.70;;;18.90;99.90;;;;;;5372777;26;20065;-76
2024/04/14 08:15:49;;;;;;;3.05;1.55;;;19.00;99.90;;;;;;5351182;26;20004;-76
2024/04/14 08:18:18;;;;;;;3.85;1.65;;;19.10;99.90;;;;;;5318730;26;19997;-76
2024/04/14 08:20:45;;;;;;;4.70;1.40;;;19.10;99.90;;;;;;5342984;26;20021;-74
2024/04/14 08:23:10;;;;;;;7.53;1.60;;;19.20;99.90;;;;;;5327134;26;20004;-75
2024/04/14 08:25:39;;;;;;;6.18;1.60;;;19.20;99.90;;;;;;5354418;26;20014;-76
2024/04/14 08:28:05;;;;;;;4.40;1.42;;;19.30;99.90;;;;;;5326807;26;20454;-77
2024/04/14 08:30:31;;;;;;;4.10;1.58;;;19.30;99.90;;;;;;5345647;26;20000;-76
2024/04/14 08:32:56;;;;;;;7.03;1.48;;;19.40;99.90;;;;;;5322165;26;20008;-76
2024/04/14 08:35:22;;;;;;;3.33;1.42;;;19.40;99.90;;;;;;5382536;26;20004;-77
2024/04/14 08:37:48;;;;;;;4.38;1.48;;;19.40;99.90;;;;;;5330721;26;20000;-76
2024/04/14 08:40:13;;;;;;;2.45;1.42;;;19.50;99.90;;;;;;5316596;26;20015;-76
2024/04/14 08:42:39;;;;;;;3.05;1.40;;;19.50;99.90;;;;;;5345307;26;20340;-77
2024/04/14 08:45:08;;;;;;;2.80;1.30;;;19.60;99.90;;;;;;5355919;26;20199;-78
2024/04/14 08:47:34;;;;;;;2.58;1.33;;;19.60;99.90;;;;;;5364722;26;20084;-76
2024/04/14 08:50:03;;;;;;;2.92;1.40;;;19.70;99.90;;;;;;5345719;26;20449;-75
2024/04/14 08:52:30;;;;;;;3.28;1.38;;;19.70;99.90;;;;;;5316487;26;20322;-75
2024/04/14 08:54:56;;;;;;;2.65;1.50;;;19.70;99.90;;;;;;5339636;26;20004;-75
2024/04/14 08:57:26;;;;;;;4.85;1.67;;;19.70;99.90;;;;;;5336977;26;20067;-75
2024/04/14 08:59:56;;;;;;;4.63;2.17;;;19.80;99.90;;;;;;5345408;26;20448;-75
2024/04/14 09:02:22;;;;;;;2.33;1.42;;;19.80;99.90;;;;;;5343950;26;20006;-75
2024/04/14 09:04:49;;;;;;;2.97;1.85;;;19.80;99.90;;;;;;5321264;26;20011;-75
2024/04/14 09:07:15;;;;;;;4.90;1.42;;;19.90;99.90;;;;;;5338143;26;20366;-75
2024/04/14 09:09:42;;;;;;;3.90;1.83;;;20.00;99.90;;;;;;5333971;26;19996;-75
2024/04/14 09:12:11;;;;;;;3.00;1.70;;;20.00;99.90;;;;;;5325401;26;20457;-75
2024/04/14 09:14:36;;;;;;;6.40;2.17;;;20.00;99.90;;;;;;5344342;26;19996;-75
2024/04/14 09:17:02;;;;;;;6.32;2.25;;;20.10;99.90;;;;;;5354998;26;20018;-76
2024/04/14 09:19:29;;;;;;;3.58;1.95;;;20.20;99.90;;;;;;5335716;26;20001;-76
2024/04/14 09:21:54;;;;;;;2.20;1.38;;;20.20;99.90;;;;;;5359586;26;20001;-76
2024/04/14 09:24:20;;;;;;;5.30;1.70;;;20.20;99.90;;;;;;5348790;26;20079;-77
2024/04/14 09:26:45;;;;;;;4.13;1.40;;;20.30;99.90;;;;;;5373615;26;19997;-76
2024/04/14 09:29:11;;;;;;;3.47;1.40;;;20.30;99.90;;;;;;5326936;26;20019;-76
2024/04/14 09:31:37;;;;;;;3.67;2.03;;;20.40;99.90;;;;;;5333352;26;20052;-76
2024/04/14 09:34:06;;;;;;;1.90;1.58;;;20.40;99.90;;;;;;5369227;26;20069;-77
2024/04/14 09:36:34;;;;;;;3.38;1.58;;;20.40;99.90;;;;;;5350452;26;20448;-75
2024/04/14 09:39:03;;;;;;;3.17;1.60;;;20.40;99.90;;;;;;5380014;26;19992;-75
2024/04/14 09:41:29;;;;;;;3.85;1.75;;;20.40;99.90;;;;;;5350161;26;20008;-75
2024/04/14 09:43:58;;;;;;;3.90;1.80;;;20.40;99.90;;;;;;5326837;26;20001;-75
2024/04/14 09:46:25;;;;;;;3.67;1.75;;;20.40;99.90;;;;;;5315385;26;20009;-74
2024/04/14 09:48:53;;;;;;;3.50;1.70;;;20.40;99.90;;;;;;5287816;26;20033;-75
2024/04/14 09:51:20;;;;;;;3.22;1.73;;;20.50;99.90;;;;;;5359099;26;20517;-74
2024/04/14 09:53:47;;;;;;;4.72;1.77;;;20.50;99.90;;;;;;5324760;26;20029;-75
2024/04/14 09:56:13;;;;;;;2.63;1.42;;;20.60;99.90;;;;;;5281075;27;20000;-74
2024/04/14 09:58:38;;;;;;;2.22;1.38;;;20.70;99.90;;;;;;5341357;26;20015;-73
2024/04/14 10:01:09;;;;;;;2.33;1.48;;;20.70;99.90;;;;;;5324269;26;20019;-74
2024/04/14 10:03:39;;;;;;;3.50;1.38;;;20.70;99.90;;;;;;5349767;26;20293;-74
2024/04/14 10:06:07;;;;;;;4.20;1.33;;;20.80;99.90;;;;;;5324429;26;20004;-74
2024/04/14 10:08:33;;;;;;;2.83;1.58;;;21.00;99.30;;;;;;5346035;26;20003;-74
2024/04/14 10:11:01;;;;;;;3.30;1.85;;;21.10;99.30;;;;;;5322984;26;20474;-74
2024/04/14 10:13:27;;;;;;;2.40;1.30;;;21.10;99.10;;;;;;5380656;26;20463;-74
2024/04/14 10:15:57;;;;;;;1.95;1.50;;;21.20;98.90;;;;;;5358017;26;20005;-75
2024/04/14 10:18:25;;;;;;;2.38;1.60;;;21.20;98.70;;;;;;5345782;26;20390;-77
2024/04/14 10:20:50;;;;;;;2.75;1.42;;;21.20;98.20;;;;;;5279848;27;19998;-75
2024/04/14 10:23:20;;;;;;;1.42;1.10;;;21.30;98.00;;;;;;5335901;26;20010;-75
2024/04/14 10:25:50;;;;;;;3.70;1.38;;;21.30;97.60;;;;;;5343995;26;19992;-75
2024/04/14 10:28:20;;;;;;;2.78;1.20;;;21.30;97.60;;;;;;5324822;26;20024;-75
2024/04/14 10:30:46;;;;;;;2.85;1.48;;;21.40;97.30;;;;;;5372198;26;20001;-75
2024/04/14 10:33:21;;;;;;;1.85;1.40;;;21.40;97.60;;;;;;5311577;26;20002;-75
2024/04/14 10:35:47;;;;;;;2.55;1.50;;;21.50;97.80;;;;;;5308948;26;20016;-75
2024/04/14 10:38:22;;;;;;;3.97;1.52;;;21.50;97.70;;;;;;5291227;26;20009;-75
2024/04/14 10:40:47;;;;;;;3.90;1.45;;;21.60;97.00;;;;;;5308577;26;20065;-75
2024/04/14 10:43:13;;;;;;;2.92;1.60;;;21.60;97.10;;;;;;5339205;26;20012;-75
2024/04/14 10:45:39;;;;;;;4.05;1.10;;;21.60;97.20;;;;;;5311418;26;20074;-75
2024/04/14 10:48:06;;;;;;;2.55;1.45;;;21.70;97.20;;;;;;5336688;26;20008;-75
2024/04/14 10:50:32;;;;;;;2.90;1.38;;;21.70;97.20;;;;;;5375996;26;20078;-75
2024/04/14 10:52:58;;;;;;;4.43;1.50;;;21.60;97.00;;;;;;5307440;26;19998;-75
2024/04/14 10:55:24;;;;;;;3.75;1.50;;;21.70;97.50;;;;;;5305966;26;20012;-75
2024/04/14 10:57:50;;;;;;;2.90;1.55;;;21.70;96.90;;;;;;5346986;26;20429;-74
2024/04/14 11:00:16;;;;;;;3.65;1.33;;;21.80;96.80;;;;;;5353896;26;20082;-74
2024/04/14 11:02:42;;;;;;;2.10;1.52;;;21.90;97.20;;;;;;5345144;26;20328;-74
2024/04/14 11:05:09;;;;;;;4.00;2.10;;;21.80;96.70;;;;;;5327891;26;20005;-75
2024/04/14 11:07:35;;;;;;;3.75;1.45;;;21.90;97.00;;;;;;5365626;26;20005;-76
2024/04/14 11:10:02;;;;;;;4.20;1.60;;;21.90;96.70;;;;;;5371593;26;20000;-77
2024/04/14 11:12:27;;;;;;;3.42;1.30;;;21.90;96.60;;;;;;5352629;26;19996;-76
2024/04/14 11:14:54;;;;;;;2.20;1.50;;;22.00;96.60;;;;;;5376280;26;20043;-78
2024/04/14 11:17:20;;;;;;;2.53;1.30;;;22.00;96.30;;;;;;5318666;26;20008;-78
2024/04/14 11:19:46;;;;;;;1.92;1.48;;;22.00;95.90;;;;;;5318222;26;20449;-79
2024/04/14 11:22:18;;;;;;;1.85;1.38;;;22.10;96.00;;;;;;5349465;26;19993;-78
2024/04/14 11:24:49;;;;;;;2.13;1.15;;;22.20;95.70;;;;;;5324241;26;19998;-78
2024/04/14 11:27:15;;;;;;;2.83;1.65;;;22.30;95.80;;;;;;5384098;26;20004;-77
2024/04/14 11:29:42;;;;;;;3.10;1.40;;;22.40;95.90;;;;;;5334121;26;20430;-77
2024/04/14 11:32:28;;;;;;;2.13;1.40;;;22.40;96.10;;;;;;5347923;26;20504;-75
2024/04/14 11:34:57;;;;;;;4.43;1.50;;;22.50;96.00;;;;;;5326179;26;20007;-75
2024/04/14 11:37:22;;;;;;;1.88;1.30;;;22.60;95.50;;;;;;5342820;26;20089;-75
2024/04/14 11:39:50;;;;;;;3.75;1.50;;;22.60;95.30;;;;;;5346647;26;20496;-74
2024/04/14 11:42:19;;;;;;;3.55;1.58;;;22.70;95.60;;;;;;5343951;26;20098;-75
2024/04/14 11:44:44;;;;;;;2.50;1.35;;;22.70;95.20;;;;;;5317543;26;20333;-75
2024/04/14 11:47:10;;;;;;;2.90;1.45;;;22.80;95.20;;;;;;5348285;26;19999;-77
2024/04/14 11:49:35;;;;;;;3.25;1.50;;;22.80;95.00;;;;;;5348164;26;20062;-77
2024/04/14 11:52:01;;;;;;;2.08;1.30;;;22.90;94.90;;;;;;5316669;26;20008;-77
2024/04/14 11:54:26;;;;;;;2.78;1.50;;;23.10;95.30;;;;;;5348650;26;20002;-76
2024/04/14 11:56:52;;;;;;;2.80;1.50;;;23.30;95.30;;;;;;5282546;27;20001;-76
2024/04/14 11:59:19;;;;;;;3.67;1.65;;;23.30;94.80;;;;;;5309062;26;20037;-77
2024/04/14 12:01:45;;;;;;;2.88;1.42;;;23.30;94.50;;;;;;5362561;26;20012;-76
2024/04/14 12:04:11;;;;;;;2.35;1.42;;;23.40;94.60;;;;;;5317422;26;20008;-76
2024/04/14 12:06:37;;;;;;;4.93;1.40;;;23.60;94.30;;;;;;5349482;26;20510;-77
2024/04/14 12:09:03;;;;;;;4.03;1.40;;;23.70;93.90;;;;;;5371466;26;19997;-80
2024/04/14 12:11:29;;;;;;;3.08;1.40;;;23.80;94.40;;;;;;5348893;26;20421;-79
2024/04/14 12:13:55;;;;;;;3.47;1.38;;;23.90;94.20;;;;;;5370035;26;20010;-77
2024/04/14 12:16:20;;;;;;;4.47;1.58;;;23.90;93.80;;;;;;5352251;26;20008;-76
2024/04/14 12:18:46;;;;;;;3.33;1.15;;;23.90;93.20;;;;;;5322546;26;20000;-77
2024/04/14 12:21:11;;;;;;;3.58;1.40;;;24.10;93.30;;;;;;5352018;26;20000;-75
2024/04/14 12:23:37;;;;;;;2.03;1.60;;;24.20;92.70;;;;;;5331516;26;20029;-75
2024/04/14 12:26:03;;;;;;;2.65;1.10;;;24.30;92.50;;;;;;5329310;26;20015;-77
2024/04/14 12:28:28;;;;;;;2.03;1.45;;;24.50;92.40;;;;;;5352581;26;20444;-78
2024/04/14 12:30:54;;;;;;;2.83;1.30;;;24.60;92.20;;;;;;5352065;26;20011;-78
2024/04/14 12:33:19;;;;;;;3.80;1.13;;;24.70;92.10;;;;;;5369866;26;20001;-78
2024/04/14 12:35:45;;;;;;;2.58;1.40;;;24.70;91.80;;;;;;5366997;26;20014;-78
2024/04/14 12:38:10;;;;;;;2.30;1.27;;;25.10;92.00;;;;;;5382943;26;20328;-77
2024/04/14 12:40:36;;;;;;;3.55;1.23;;;25.30;91.80;;;;;;5349385;26;20000;-77
2024/04/14 12:43:02;;;;;;;1.55;1.30;;;25.30;91.20;;;;;;5325830;26;20000;-77